Time;durP1;ratioP1;P1;durP2;ratioP2;P2;SDS_P1;SDS_P2;PMS_P1;PMS_P2;Temp;Humidity;BMP_temperature;BMP_pressure;BME280_temperature;BME280_humidity;BME280_pressure;Samples;Min_cycle;Max_cycle;Signal;HPM_P1;HPM_P2
2022/11/25 00:01:30;;;;;;;56.58;14.10;;;;;;;-148.24;100.00;61531.34;4964285;28;20054;-54
2022/11/25 00:03:57;;;;;;;89.10;15.30;;;;;;;-148.24;100.00;61531.34;4966692;28;20173;-54
2022/11/25 00:06:25;;;;;;;87.82;13.38;;;;;;;-148.24;100.00;61531.34;4966162;28;20077;-54
2022/11/25 00:09:09;;;;;;;73.32;15.15;;;;;;;-148.24;100.00;61531.34;4974109;28;20686;-57
2022/11/25 00:11:36;;;;;;;88.03;15.68;;;;;;;-148.24;100.00;61531.34;4965891;28;20041;-55
2022/11/25 00:14:01;;;;;;;99.00;13.90;;;;;;;-148.24;100.00;61531.34;4967289;28;20093;-54
2022/11/25 00:16:27;;;;;;;86.38;15.32;;;;;;;-148.24;100.00;61531.34;4966344;28;20534;-54
2022/11/25 00:18:54;;;;;;;92.97;15.30;;;;;;;-148.24;100.00;61531.34;4966441;28;20027;-55
2022/11/25 00:21:23;;;;;;;82.70;15.18;;;;;;;-148.24;100.00;61531.34;4964571;28;20042;-53
2022/11/25 00:23:53;;;;;;;76.72;14.25;;;;;;;-148.24;100.00;61531.34;4966054;28;20039;-54
2022/11/25 00:26:19;;;;;;;72.00;14.35;;;;;;;-148.24;100.00;61531.34;4964580;28;20088;-56
2022/11/25 00:28:46;;;;;;;86.32;15.20;;;;;;;-148.24;100.00;61531.34;4967762;28;20063;-54
2022/11/25 00:31:20;;;;;;;67.18;13.45;;;;;;;-148.24;100.00;61531.34;4964333;28;20031;-53
2022/11/25 00:33:46;;;;;;;120.28;15.40;;;;;;;-148.24;100.00;61531.34;4966125;28;20217;-54
2022/11/25 00:36:16;;;;;;;90.10;13.32;;;;;;;-148.24;100.00;61531.34;4965003;28;20382;-53
2022/11/25 00:38:42;;;;;;;77.85;11.65;;;;;;;-148.24;100.00;61531.34;4965815;28;20039;-54
2022/11/25 00:46:35;;;;;;;89.32;13.50;;;;;;;-148.24;100.00;61531.34;4963977;28;20053;-58
2022/11/25 00:49:00;;;;;;;95.57;13.55;;;;;;;-148.24;100.00;61531.34;4966951;28;20022;-54
2022/11/25 00:51:26;;;;;;;58.72;9.65;;;;;;;-148.24;100.00;61531.34;4966598;28;20065;-54
2022/11/25 00:53:51;;;;;;;51.72;11.13;;;;;;;-148.24;100.00;61531.34;4967624;28;20121;-54
2022/11/25 00:56:16;;;;;;;56.58;11.80;;;;;;;-148.24;100.00;61531.34;4968910;28;20112;-54
2022/11/25 00:58:43;;;;;;;59.75;12.10;;;;;;;-148.24;100.00;61531.34;4964411;28;20030;-57
2022/11/25 01:01:09;;;;;;;82.38;12.68;;;;;;;-148.24;100.00;61531.34;4963438;28;20031;-56
2022/11/25 01:03:38;;;;;;;136.27;13.80;;;;;;;-148.24;100.00;61531.34;4965515;28;20023;-56
2022/11/25 01:06:06;;;;;;;96.95;13.43;;;;;;;-148.24;100.00;61531.34;4963246;28;20097;-55
2022/11/25 01:08:32;;;;;;;101.85;13.45;;;;;;;-148.24;100.00;61531.34;4967415;28;20698;-56
2022/11/25 01:11:03;;;;;;;114.47;13.57;;;;;;;-148.24;100.00;61531.34;4963204;28;20042;-54
2022/11/25 01:13:28;;;;;;;97.68;12.73;;;;;;;-148.24;100.00;61531.34;4967499;28;20054;-54
2022/11/25 01:15:54;;;;;;;131.70;13.85;;;;;;;-148.24;100.00;61531.34;4962901;28;20557;-54
2022/11/25 01:18:19;;;;;;;70.60;11.48;;;;;;;-148.24;100.00;61531.34;4964957;28;20109;-56
2022/11/25 01:20:45;;;;;;;120.82;14.30;;;;;;;-148.24;100.00;61531.34;4965525;28;20624;-55
2022/11/25 01:23:10;;;;;;;144.20;13.55;;;;;;;-148.24;100.00;61531.34;4956817;28;20594;-55
2022/11/25 01:25:37;;;;;;;111.38;12.73;;;;;;;-148.24;100.00;61531.34;4965567;28;20054;-56
2022/11/25 01:28:02;;;;;;;114.40;12.52;;;;;;;-148.24;100.00;61531.34;4961421;28;20026;-57
2022/11/25 01:30:28;;;;;;;115.47;12.60;;;;;;;-148.24;100.00;61531.34;4961859;28;20120;-54
2022/11/25 01:32:53;;;;;;;57.08;10.18;;;;;;;-148.24;100.00;61531.34;4962737;28;20396;-55
2022/11/25 01:35:18;;;;;;;66.57;11.63;;;;;;;-148.24;100.00;61531.34;4961793;28;20107;-55
2022/11/25 01:37:44;;;;;;;67.28;11.10;;;;;;;-148.24;100.00;61531.34;4963177;28;20023;-54
2022/11/25 01:40:09;;;;;;;85.07;12.57;;;;;;;-148.24;100.00;61531.34;4959864;28;20532;-54
2022/11/25 01:42:41;;;;;;;89.35;12.02;;;;;;;-148.24;100.00;61531.34;4962633;28;20027;-57
2022/11/25 01:45:33;;;;;;;72.40;11.02;;;;;;;-148.24;100.00;61531.34;4964911;28;20122;-57
2022/11/25 01:48:07;;;;;;;43.38;9.40;;;;;;;-148.24;100.00;61531.34;4964513;28;20049;-54
2022/11/25 01:50:35;;;;;;;69.57;10.30;;;;;;;-148.24;100.00;61531.34;4965544;28;20747;-55
2022/11/25 01:53:05;;;;;;;65.22;10.70;;;;;;;-148.24;100.00;61531.34;4968778;28;20035;-54
2022/11/25 01:55:34;;;;;;;75.13;9.75;;;;;;;-148.24;100.00;61531.34;4966236;28;20043;-54
2022/11/25 01:58:15;;;;;;;93.32;11.10;;;;;;;-148.24;100.00;61531.34;4966775;28;20027;-54
2022/11/25 02:00:49;;;;;;;69.22;9.38;;;;;;;-148.24;100.00;61531.34;4967043;28;20527;-54
2022/11/25 02:03:16;;;;;;;86.47;11.15;;;;;;;-148.24;100.00;61531.34;4961861;28;20412;-54
2022/11/25 02:05:49;;;;;;;76.07;10.80;;;;;;;-148.24;100.00;61531.34;4963475;28;20069;-56
2022/11/25 02:08:15;;;;;;;78.00;9.80;;;;;;;-148.24;100.00;61531.34;4966248;28;20034;-54
2022/11/25 02:10:43;;;;;;;66.38;10.45;;;;;;;-148.24;100.00;61531.34;4970391;28;20050;-54
2022/11/25 02:13:09;;;;;;;80.68;10.52;;;;;;;-148.24;100.00;61531.34;4966646;28;20037;-54
2022/11/25 02:15:35;;;;;;;70.32;9.88;;;;;;;-148.24;100.00;61531.34;4967249;28;20034;-54
2022/11/25 02:18:01;;;;;;;71.70;9.40;;;;;;;-148.24;100.00;61531.34;4967712;28;20026;-55
2022/11/25 02:20:27;;;;;;;88.32;9.93;;;;;;;-148.24;100.00;61531.34;4967166;28;20047;-54
2022/11/25 02:23:14;;;;;;;62.90;9.20;;;;;;;-148.24;100.00;61531.34;4962874;28;20030;-53
2022/11/25 02:25:40;;;;;;;82.60;10.60;;;;;;;-148.24;100.00;61531.34;4968551;28;20043;-54
2022/11/25 02:28:16;;;;;;;38.30;8.65;;;;;;;-148.24;100.00;61531.34;4968467;28;20069;-54
2022/11/25 02:30:42;;;;;;;77.75;9.57;;;;;;;-148.24;100.00;61531.34;4968385;28;20030;-54
2022/11/25 02:33:08;;;;;;;54.83;9.25;;;;;;;-148.24;100.00;61531.34;4971187;28;20084;-54
2022/11/25 02:35:35;;;;;;;48.33;8.57;;;;;;;-148.24;100.00;61531.34;4968751;28;20789;-54
2022/11/25 02:38:17;;;;;;;59.53;8.90;;;;;;;-148.24;100.00;61531.34;4967562;28;20026;-55
2022/11/25 02:40:56;;;;;;;83.18;10.35;;;;;;;-148.24;100.00;61531.34;4965653;28;20531;-54
2022/11/25 02:43:22;;;;;;;94.25;8.77;;;;;;;-148.24;100.00;61531.34;4967190;28;20528;-54
2022/11/25 02:45:54;;;;;;;88.35;9.07;;;;;;;-148.24;100.00;61531.34;4965672;28;20039;-55
2022/11/25 02:48:19;;;;;;;58.50;7.93;;;;;;;-148.24;100.00;61531.34;4966477;28;20037;-55
2022/11/25 02:50:45;;;;;;;112.15;9.90;;;;;;;-148.24;100.00;61531.34;4965943;28;20035;-53
2022/11/25 02:53:10;;;;;;;119.15;9.02;;;;;;;-148.24;100.00;61531.34;4969899;28;20026;-54
2022/11/25 02:55:36;;;;;;;101.43;10.00;;;;;;;-148.24;100.00;61531.34;4965633;28;20038;-54
2022/11/25 02:58:01;;;;;;;82.68;9.65;;;;;;;-148.24;100.00;61531.34;4965917;28;20066;-55
2022/11/25 03:00:26;;;;;;;116.90;9.43;;;;;;;-148.24;100.00;61531.34;4967226;28;20190;-54
2022/11/25 03:02:53;;;;;;;128.82;10.48;;;;;;;-148.24;100.00;61531.34;4968969;28;20073;-54
2022/11/25 03:05:19;;;;;;;211.20;10.95;;;;;;;-148.24;100.00;61531.34;4967583;28;20031;-54
2022/11/25 03:07:45;;;;;;;84.45;8.80;;;;;;;-148.24;100.00;61531.34;4966606;28;20023;-53
2022/11/25 03:10:10;;;;;;;94.75;10.07;;;;;;;-148.24;100.00;61531.34;4965076;28;20248;-54
2022/11/25 03:12:36;;;;;;;94.97;9.52;;;;;;;-148.24;100.00;61531.34;4968613;28;20026;-55
2022/11/25 03:15:02;;;;;;;93.82;9.38;;;;;;;-148.24;100.00;61531.34;4967671;28;20691;-53
2022/11/25 03:17:27;;;;;;;82.53;9.65;;;;;;;-148.24;100.00;61531.34;4965266;28;20046;-55
2022/11/25 03:19:52;;;;;;;73.25;8.85;;;;;;;-148.24;100.00;61531.34;4967024;28;20477;-54
2022/11/25 03:22:18;;;;;;;62.55;8.52;;;;;;;-148.24;100.00;61531.34;4965746;28;20038;-56
2022/11/25 03:24:43;;;;;;;47.55;8.30;;;;;;;-148.24;100.00;61531.34;4967902;28;20543;-55
2022/11/25 03:27:09;;;;;;;64.80;8.93;;;;;;;-148.24;100.00;61531.34;4965512;28;20047;-53
2022/11/25 03:29:34;;;;;;;87.35;9.13;;;;;;;-148.24;100.00;61531.34;4965797;28;20027;-53
2022/11/25 03:31:59;;;;;;;86.97;8.27;;;;;;;-148.24;100.00;61531.34;4967234;28;20096;-56
2022/11/25 03:34:25;;;;;;;77.40;9.10;;;;;;;-148.24;100.00;61531.34;4969229;28;20089;-57
2022/11/25 03:36:50;;;;;;;63.10;7.97;;;;;;;-148.24;100.00;61531.34;4968135;28;20066;-57
2022/11/25 03:39:15;;;;;;;49.15;8.52;;;;;;;-148.24;100.00;61531.34;4968273;28;20050;-56
2022/11/25 03:41:41;;;;;;;45.40;8.13;;;;;;;-148.24;100.00;61531.34;4964209;28;20134;-56
2022/11/25 03:44:06;;;;;;;75.22;9.02;;;;;;;-148.24;100.00;61531.34;4966780;28;20062;-54
2022/11/25 03:46:32;;;;;;;62.47;9.32;;;;;;;-148.24;100.00;61531.34;4967232;28;20512;-54
2022/11/25 03:48:57;;;;;;;60.28;7.72;;;;;;;-148.24;100.00;61531.34;4965388;28;20125;-56
2022/11/25 03:51:22;;;;;;;85.97;8.75;;;;;;;-148.24;100.00;61531.34;4966019;28;20814;-54
2022/11/25 03:53:48;;;;;;;84.20;9.15;;;;;;;-148.24;100.00;61531.34;4966357;28;20452;-54
2022/11/25 03:56:13;;;;;;;75.18;8.43;;;;;;;-148.24;100.00;61531.34;4966876;28;20494;-53
2022/11/25 03:58:39;;;;;;;67.55;8.55;;;;;;;-148.24;100.00;61531.34;4965027;28;20092;-53
2022/11/25 04:01:04;;;;;;;71.88;8.82;;;;;;;-148.24;100.00;61531.34;4965578;28;20093;-54
2022/11/25 04:03:30;;;;;;;75.57;8.43;;;;;;;-148.24;100.00;61531.34;4968085;28;20030;-54
2022/11/25 04:05:55;;;;;;;71.43;8.80;;;;;;;-148.24;100.00;61531.34;4966493;28;20173;-53
2022/11/25 04:08:21;;;;;;;67.20;8.95;;;;;;;-148.24;100.00;61531.34;4968665;28;20089;-53
2022/11/25 04:10:50;;;;;;;130.52;10.25;;;;;;;-148.24;100.00;61531.34;4969115;28;20415;-54
2022/11/25 04:13:15;;;;;;;92.68;9.13;;;;;;;-148.24;100.00;61531.34;4966773;28;20081;-54
2022/11/25 04:15:45;;;;;;;99.90;10.15;;;;;;;-148.24;100.00;61531.34;4965038;28;20035;-55
2022/11/25 04:18:12;;;;;;;94.35;10.02;;;;;;;-148.24;100.00;61531.34;4966879;28;20030;-53
2022/11/25 04:20:37;;;;;;;77.70;9.98;;;;;;;-148.24;100.00;61531.34;4964201;28;20038;-55
2022/11/25 04:23:02;;;;;;;56.35;9.60;;;;;;;-148.24;100.00;61531.34;4966210;28;20038;-56
2022/11/25 04:25:28;;;;;;;42.20;6.18;;;;;;;-148.24;100.00;61531.34;4966654;28;20059;-57
2022/11/25 04:27:53;;;;;;;68.53;9.35;;;;;;;-148.24;100.00;61531.34;4965470;28;20045;-54
2022/11/25 04:30:19;;;;;;;48.50;7.82;;;;;;;-148.24;100.00;61531.34;4962986;28;20061;-54
2022/11/25 04:32:44;;;;;;;65.25;8.45;;;;;;;-148.24;100.00;61531.34;4964789;28;20029;-55
2022/11/25 04:35:09;;;;;;;121.05;10.10;;;;;;;-148.24;100.00;61531.34;4964862;28;20085;-54
2022/11/25 04:37:35;;;;;;;98.10;8.98;;;;;;;-148.24;100.00;61531.34;4965876;28;20095;-54
2022/11/25 04:40:00;;;;;;;131.50;12.02;;;;;;;-148.24;100.00;61531.34;4964543;28;20392;-54
2022/11/25 04:42:31;;;;;;;112.78;10.85;;;;;;;-148.24;100.00;61531.34;4965518;28;20053;-53
2022/11/25 04:44:58;;;;;;;84.80;9.13;;;;;;;-148.24;100.00;61531.34;4962618;28;20034;-54
2022/11/25 04:47:23;;;;;;;99.63;9.52;;;;;;;-148.24;100.00;61531.34;4965275;28;20049;-54
2022/11/25 04:49:49;;;;;;;77.20;10.40;;;;;;;-148.24;100.00;61531.34;4966208;28;20030;-54
2022/11/25 04:52:14;;;;;;;92.47;10.80;;;;;;;-148.24;100.00;61531.34;4966649;28;20034;-55
2022/11/25 04:54:39;;;;;;;85.63;9.30;;;;;;;-148.24;100.00;61531.34;4964868;28;20027;-55
2022/11/25 04:57:05;;;;;;;87.15;9.60;;;;;;;-148.24;100.00;61531.34;4962750;28;20248;-54
2022/11/25 04:59:39;;;;;;;85.25;9.73;;;;;;;-148.24;100.00;61531.34;4965662;28;20661;-54
2022/11/25 05:02:22;;;;;;;117.30;9.68;;;;;;;-148.24;100.00;61531.34;4962504;28;20047;-53
2022/11/25 05:04:50;;;;;;;95.80;8.65;;;;;;;-148.24;100.00;61531.34;4965100;28;20038;-55
2022/11/25 05:07:17;;;;;;;74.75;8.98;;;;;;;-148.24;100.00;61531.34;4966186;28;20050;-56
2022/11/25 05:09:42;;;;;;;125.95;10.10;;;;;;;-148.24;100.00;61531.34;4964386;28;20034;-56
2022/11/25 05:12:15;;;;;;;92.32;8.13;;;;;;;-148.24;100.00;61531.34;4961849;28;20042;-57
2022/11/25 05:14:40;;;;;;;90.68;9.52;;;;;;;-148.24;100.00;61531.34;4963258;28;20030;-54
2022/11/25 05:17:06;;;;;;;95.88;9.82;;;;;;;-148.24;100.00;61531.34;4963866;28;20134;-54
2022/11/25 05:19:34;;;;;;;83.15;9.80;;;;;;;-148.24;100.00;61531.34;4963928;28;20633;-53
2022/11/25 05:22:00;;;;;;;127.18;9.85;;;;;;;-148.24;100.00;61531.34;4965460;28;20583;-56
2022/11/25 05:24:25;;;;;;;115.78;9.63;;;;;;;-148.24;100.00;61531.34;4964143;28;20023;-57
2022/11/25 05:26:51;;;;;;;111.05;9.45;;;;;;;-148.24;100.00;61531.34;4967247;28;20043;-54
2022/11/25 05:29:16;;;;;;;107.88;9.45;;;;;;;-148.24;100.00;61531.34;4963757;28;20031;-57
2022/11/25 05:31:42;;;;;;;77.07;7.75;;;;;;;-148.24;100.00;61531.34;4964339;28;20047;-54
2022/11/25 05:34:07;;;;;;;128.60;9.48;;;;;;;-148.24;100.00;61531.34;4963260;28;20036;-54
2022/11/25 05:36:32;;;;;;;207.85;9.63;;;;;;;-148.24;100.00;61531.34;4963823;28;20468;-54
2022/11/25 05:38:58;;;;;;;100.38;8.25;;;;;;;-148.24;100.00;61531.34;4964072;28;20034;-53
2022/11/25 05:41:24;;;;;;;103.90;8.73;;;;;;;-148.24;100.00;61531.34;4963288;28;20136;-55
2022/11/25 05:43:50;;;;;;;142.73;9.27;;;;;;;-148.24;100.00;61531.34;4963296;28;20412;-53
2022/11/25 05:46:15;;;;;;;158.90;8.95;;;;;;;-148.24;100.00;61531.34;4966598;28;20042;-56
2022/11/25 05:48:40;;;;;;;111.90;7.63;;;;;;;-148.24;100.00;61531.34;4962340;28;20058;-56
2022/11/25 05:51:07;;;;;;;136.82;8.63;;;;;;;-148.24;100.00;61531.34;4963529;28;20065;-56
2022/11/25 05:53:33;;;;;;;125.32;8.23;;;;;;;-148.24;100.00;61531.34;4964447;28;20043;-55
2022/11/25 05:56:04;;;;;;;76.03;7.63;;;;;;;-148.24;100.00;61531.34;4965957;28;20094;-56
2022/11/25 05:58:31;;;;;;;64.07;7.03;;;;;;;-148.24;100.00;61531.34;4966023;28;20056;-54
2022/11/25 06:00:57;;;;;;;56.28;7.05;;;;;;;-148.24;100.00;61531.34;4965109;28;20081;-53
2022/11/25 06:03:24;;;;;;;75.97;7.28;;;;;;;-148.24;100.00;61531.34;4963284;28;20031;-53
2022/11/25 06:05:49;;;;;;;55.65;7.32;;;;;;;-148.24;100.00;61531.34;4964024;28;20047;-53
2022/11/25 06:08:14;;;;;;;56.47;7.07;;;;;;;-148.24;100.00;61531.34;4967888;28;20029;-54
2022/11/25 06:10:40;;;;;;;33.20;7.40;;;;;;;-148.24;100.00;61531.34;4963938;28;20050;-53
2022/11/25 06:13:08;;;;;;;46.63;7.55;;;;;;;-148.24;100.00;61531.34;4965047;28;20030;-54
2022/11/25 06:15:38;;;;;;;41.22;7.38;;;;;;;-148.24;100.00;61531.34;4962555;28;20097;-54
2022/11/25 06:18:04;;;;;;;62.92;7.28;;;;;;;-148.24;100.00;61531.34;4964074;28;20046;-54
2022/11/25 06:20:29;;;;;;;52.80;8.93;;;;;;;-148.24;100.00;61531.34;4964025;28;20030;-55
2022/11/25 06:22:56;;;;;;;45.75;8.95;;;;;;;-148.24;100.00;61531.34;4964713;28;20036;-54
2022/11/25 06:25:21;;;;;;;66.05;8.95;;;;;;;-148.24;100.00;61531.34;4963499;28;20030;-57
2022/11/25 06:27:47;;;;;;;62.28;9.63;;;;;;;-148.24;100.00;61531.34;4963226;28;20051;-54
2022/11/25 06:30:13;;;;;;;81.28;10.38;;;;;;;-148.24;100.00;61531.34;4964695;28;20405;-54
2022/11/25 06:32:38;;;;;;;60.65;10.05;;;;;;;-148.24;100.00;61531.34;4963418;28;20596;-54
2022/11/25 06:35:04;;;;;;;63.13;9.65;;;;;;;-148.24;100.00;61531.34;4961629;28;20127;-53
2022/11/25 06:37:31;;;;;;;48.30;9.32;;;;;;;-148.24;100.00;61531.34;4963300;28;20039;-54
2022/11/25 06:39:56;;;;;;;53.60;9.52;;;;;;;-148.24;100.00;61531.34;4962156;28;20788;-55
2022/11/25 06:42:22;;;;;;;76.72;10.30;;;;;;;-148.24;100.00;61531.34;4964810;28;20049;-53
2022/11/25 06:44:47;;;;;;;72.50;10.95;;;;;;;-148.24;100.00;61531.34;4962511;28;20397;-53
2022/11/25 06:47:12;;;;;;;91.10;11.30;;;;;;;-148.24;100.00;61531.34;4954595;28;20434;-55
2022/11/25 06:49:37;;;;;;;69.50;11.50;;;;;;;-148.24;100.00;61531.34;4962612;28;20054;-54
2022/11/25 06:52:03;;;;;;;42.20;8.27;;;;;;;-148.24;100.00;61531.34;4960560;28;20420;-54
2022/11/25 06:54:28;;;;;;;43.75;7.57;;;;;;;-148.24;100.00;61531.34;4967496;28;20035;-56
2022/11/25 06:56:54;;;;;;;46.03;8.82;;;;;;;-148.24;100.00;61531.34;4968596;28;20226;-55
2022/11/25 06:59:20;;;;;;;38.08;9.05;;;;;;;-148.24;100.00;61531.34;4970290;28;20038;-54
2022/11/25 07:01:45;;;;;;;59.53;10.80;;;;;;;-148.24;100.00;61531.34;4966161;28;20527;-55
2022/11/25 07:04:11;;;;;;;34.17;8.32;;;;;;;-148.24;100.00;61531.34;4966963;28;20703;-55
2022/11/25 07:06:36;;;;;;;35.92;8.10;;;;;;;-148.24;100.00;61531.34;4964437;28;20074;-56
2022/11/25 07:09:03;;;;;;;49.53;9.13;;;;;;;-148.24;100.00;61531.34;4966959;28;20033;-55
2022/11/25 07:11:31;;;;;;;45.97;9.52;;;;;;;-148.24;100.00;61531.34;4966830;28;20054;-54
2022/11/25 07:13:59;;;;;;;43.83;8.93;;;;;;;-148.24;100.00;61531.34;4967256;28;20591;-55
2022/11/25 07:16:25;;;;;;;35.17;7.93;;;;;;;-148.24;100.00;61531.34;4966474;28;20046;-56
2022/11/25 07:18:51;;;;;;;34.20;8.40;;;;;;;-148.24;100.00;61531.34;4965624;28;20101;-54
2022/11/25 07:21:20;;;;;;;45.30;10.45;;;;;;;-148.24;100.00;61531.34;4963697;28;20049;-54
2022/11/25 07:23:46;;;;;;;45.72;10.88;;;;;;;-148.24;100.00;61531.34;4966157;28;20137;-56
2022/11/25 07:26:14;;;;;;;50.67;11.82;;;;;;;-148.24;100.00;61531.34;4964991;28;20770;-56
2022/11/25 07:28:40;;;;;;;37.63;9.40;;;;;;;-148.24;100.00;61531.34;4969008;28;20030;-56
2022/11/25 07:31:14;;;;;;;34.80;8.93;;;;;;;-148.24;100.00;61531.34;4965456;28;20035;-53
2022/11/25 07:33:39;;;;;;;41.03;10.88;;;;;;;-148.24;100.00;61531.34;4967305;28;20030;-53
2022/11/25 07:36:07;;;;;;;40.75;12.23;;;;;;;-148.24;100.00;61531.34;4967513;28;20046;-54
2022/11/25 07:38:33;;;;;;;38.33;12.32;;;;;;;-148.24;100.00;61531.34;4968837;28;20065;-55
2022/11/25 07:41:07;;;;;;;37.03;11.00;;;;;;;-148.24;100.00;61531.34;4966174;28;20053;-54
2022/11/25 07:43:32;;;;;;;37.40;11.30;;;;;;;-148.24;100.00;61531.34;4966925;28;20108;-54
2022/11/25 07:46:17;;;;;;;40.88;12.82;;;;;;;-148.24;100.00;61531.34;4965864;28;20595;-55
2022/11/25 07:48:43;;;;;;;51.28;12.05;;;;;;;-148.24;100.00;61531.34;4966292;28;20037;-54
2022/11/25 07:51:25;;;;;;;50.08;12.55;;;;;;;-148.24;100.00;61531.34;4963973;28;20631;-54
2022/11/25 07:53:53;;;;;;;36.35;11.52;;;;;;;-148.24;100.00;61531.34;4965286;28;20066;-55
2022/11/25 07:56:18;;;;;;;44.03;10.98;;;;;;;-148.24;100.00;61531.34;4965301;28;20121;-54
2022/11/25 07:58:44;;;;;;;39.30;10.63;;;;;;;-148.24;100.00;61531.34;4965826;28;20113;-54
2022/11/25 08:01:11;;;;;;;39.00;10.88;;;;;;;-148.24;100.00;61531.34;4967709;28;20054;-53
2022/11/25 08:03:39;;;;;;;41.00;11.15;;;;;;;-148.24;100.00;61531.34;4964933;28;20567;-54
2022/11/25 08:06:07;;;;;;;40.83;10.65;;;;;;;-148.24;100.00;61531.34;4964438;28;20108;-58
2022/11/25 08:08:34;;;;;;;35.00;9.68;;;;;;;-148.24;100.00;61531.34;4964252;28;20030;-55
2022/11/25 08:11:00;;;;;;;39.97;10.68;;;;;;;-148.24;100.00;61531.34;4965716;28;20568;-53
2022/11/25 08:13:26;;;;;;;39.40;10.75;;;;;;;-148.24;100.00;61531.34;4964688;28;20629;-54
2022/11/25 08:15:51;;;;;;;47.65;11.18;;;;;;;-148.24;100.00;61531.34;4967734;28;20046;-55
2022/11/25 08:18:17;;;;;;;40.20;10.70;;;;;;;-148.24;100.00;61531.34;4966413;28;20023;-54
2022/11/25 08:20:43;;;;;;;35.72;9.82;;;;;;;-148.24;100.00;61531.34;4963973;28;20043;-55
2022/11/25 08:23:08;;;;;;;43.50;11.32;;;;;;;-148.24;100.00;61531.34;4965784;28;20045;-53
2022/11/25 08:25:41;;;;;;;38.30;10.25;;;;;;;-148.24;100.00;61531.34;4965217;28;20034;-54
2022/11/25 08:28:06;;;;;;;;;;;;;;;-148.24;100.00;61531.34;4967508;28;20536;-55
2022/11/25 08:30:32;;;;;;;47.72;11.40;;;;;;;-148.24;100.00;61531.34;4965389;28;19925;-54
2022/11/25 08:32:58;;;;;;;30.17;10.13;;;;;;;-148.24;100.00;61531.34;4965346;28;20046;-54
2022/11/25 08:35:24;;;;;;;40.50;13.00;;;;;;;-148.24;100.00;61531.34;4965406;28;20031;-56
2022/11/25 08:37:49;;;;;;;35.72;10.77;;;;;;;-148.24;100.00;61531.34;4965685;28;20104;-54
2022/11/25 08:40:15;;;;;;;43.35;10.60;;;;;;;-148.24;100.00;61531.34;4966021;28;20030;-53
2022/11/25 08:42:40;;;;;;;34.92;10.68;;;;;;;-148.24;100.00;61531.34;4964207;28;20030;-55
2022/11/25 08:45:07;;;;;;;43.63;11.48;;;;;;;-148.24;100.00;61531.34;4964018;28;20069;-55
2022/11/25 08:47:32;;;;;;;38.10;11.68;;;;;;;-148.24;100.00;61531.34;4963977;28;20665;-53
2022/11/25 08:49:58;;;;;;;36.08;11.80;;;;;;;-148.24;100.00;61531.34;4964166;28;20034;-54
2022/11/25 08:52:23;;;;;;;38.75;11.98;;;;;;;-148.24;100.00;61531.34;4965129;28;20038;-54
2022/11/25 08:54:48;;;;;;;37.80;11.32;;;;;;;-148.24;100.00;61531.34;4964701;28;20058;-54
2022/11/25 08:57:14;;;;;;;42.70;14.25;;;;;;;-148.24;100.00;61531.34;4963154;28;20041;-55
2022/11/25 08:59:40;;;;;;;40.42;11.27;;;;;;;-148.24;100.00;61531.34;4963701;28;20499;-53
2022/11/25 09:02:07;;;;;;;35.65;12.00;;;;;;;-148.24;100.00;61531.34;4962433;28;20051;-53
2022/11/25 09:04:32;;;;;;;39.67;11.23;;;;;;;-148.24;100.00;61531.34;4963686;28;20033;-54
2022/11/25 09:06:58;;;;;;;31.13;10.70;;;;;;;-148.24;100.00;61531.34;4964935;28;20046;-53
2022/11/25 09:09:24;;;;;;;27.25;10.13;;;;;;;-148.24;100.00;61531.34;4964548;28;20278;-53
2022/11/25 09:11:50;;;;;;;34.10;10.80;;;;;;;-148.24;100.00;61531.34;4964776;28;20452;-54
2022/11/25 09:14:15;;;;;;;29.10;9.40;;;;;;;-148.24;100.00;61531.34;4966163;28;20411;-55
2022/11/25 09:16:41;;;;;;;36.33;10.98;;;;;;;-148.24;100.00;61531.34;4962535;28;20785;-54
2022/11/25 09:19:06;;;;;;;33.25;9.23;;;;;;;-148.24;100.00;61531.34;4966903;28;20046;-54
2022/11/25 09:21:31;;;;;;;32.90;10.57;;;;;;;-148.24;100.00;61531.34;4963139;28;20039;-55
2022/11/25 09:23:57;;;;;;;34.38;9.40;;;;;;;-148.24;100.00;61531.34;4966506;28;20053;-54
2022/11/25 09:26:27;;;;;;;34.25;10.75;;;;;;;-148.24;100.00;61531.34;4964443;28;20145;-54
2022/11/25 09:28:53;;;;;;;32.13;9.95;;;;;;;-148.24;100.00;61531.34;4964615;28;20030;-56
2022/11/25 09:31:19;;;;;;;30.25;9.98;;;;;;;-148.24;100.00;61531.34;4962785;28;20460;-53
2022/11/25 09:33:45;;;;;;;29.52;9.52;;;;;;;-148.24;100.00;61531.34;4965057;28;20030;-57
2022/11/25 09:36:12;;;;;;;40.08;10.73;;;;;;;-148.24;100.00;61531.34;4966183;28;20041;-55
2022/11/25 09:38:38;;;;;;;30.50;9.65;;;;;;;-148.24;100.00;61531.34;4966995;28;20571;-54
2022/11/25 09:47:46;;;;;;;26.92;8.75;;;;;;;-148.24;100.00;61531.34;4965330;28;20132;-54
2022/11/25 09:50:31;;;;;;;27.75;7.75;;;;;;;-148.24;100.00;61531.34;4966868;28;20128;-54
2022/11/25 09:53:19;;;;;;;23.85;6.40;;;;;;;-148.24;100.00;61531.34;4966784;28;20022;-55
2022/11/25 09:55:48;;;;;;;25.00;6.65;;;;;;;-148.24;100.00;61531.34;4964463;28;20101;-55
2022/11/25 09:58:34;;;;;;;54.60;23.60;;;;;;;-148.24;100.00;61531.34;4966266;28;20030;-57
2022/11/25 10:01:05;;;;;;;24.23;6.93;;;;;;;-148.24;100.00;61531.34;4966859;28;20046;-55
2022/11/25 10:03:44;;;;;;;27.42;7.03;;;;;;;-148.24;100.00;61531.34;4968304;28;20066;-53
2022/11/25 10:06:14;;;;;;;25.30;6.35;;;;;;;-148.24;100.00;61531.34;4965182;28;20484;-53
2022/11/25 10:08:59;;;;;;;23.63;6.38;;;;;;;-148.24;100.00;61531.34;4964994;28;20051;-53
2022/11/25 10:11:49;;;;;;;20.45;4.30;;;;;;;-148.24;100.00;61531.34;4967345;28;20039;-55
2022/11/25 10:14:38;;;;;;;24.08;6.38;;;;;;;-148.24;100.00;61531.34;4965084;28;20022;-56
2022/11/25 10:17:32;;;;;;;24.20;6.47;;;;;;;-148.24;100.00;61531.34;4963999;28;20066;-54
2022/11/25 10:20:06;;;;;;;20.70;5.88;;;;;;;-148.24;100.00;61531.34;4962242;28;20741;-54
2022/11/25 10:22:40;;;;;;;23.35;6.25;;;;;;;-148.24;100.00;61531.34;4965433;28;20051;-57
2022/11/25 10:25:14;;;;;;;21.60;5.97;;;;;;;-148.24;100.00;61531.34;4963799;28;20530;-55
2022/11/25 10:27:47;;;;;;;20.42;5.10;;;;;;;-148.24;100.00;61531.34;4964366;28;20058;-56
2022/11/25 10:30:54;;;;;;;23.27;6.68;;;;;;;-148.24;100.00;61531.34;4967079;28;20035;-54
2022/11/25 10:33:23;;;;;;;20.30;5.80;;;;;;;-148.24;100.00;61531.34;4965362;28;20070;-56
2022/11/25 10:35:53;;;;;;;22.02;6.10;;;;;;;-148.24;100.00;61531.34;4967521;28;20069;-54
2022/11/25 10:38:42;;;;;;;18.70;4.05;;;;;;;-148.24;100.00;61531.34;4966311;28;20060;-55
2022/11/25 10:41:14;;;;;;;24.00;6.28;;;;;;;-148.24;100.00;61531.34;4967891;28;20093;-54
2022/11/25 10:43:40;;;;;;;19.92;6.03;;;;;;;-148.24;100.00;61531.34;4968978;28;20574;-55
2022/11/25 10:46:21;;;;;;;24.17;6.75;;;;;;;-148.24;100.00;61531.34;4966863;28;20508;-53
2022/11/25 10:48:58;;;;;;;23.67;6.55;;;;;;;-148.24;100.00;61531.34;4966490;28;20034;-53
2022/11/25 10:51:29;;;;;;;21.17;5.72;;;;;;;-148.24;100.00;61531.34;4969252;28;20047;-53
2022/11/25 10:54:24;;;;;;;19.42;5.50;;;;;;;-148.24;100.00;61531.34;4970633;28;20591;-55
2022/11/25 10:56:59;;;;;;;16.77;5.60;;;;;;;-148.24;100.00;61531.34;4966500;28;20066;-56
2022/11/25 10:59:34;;;;;;;25.35;6.70;;;;;;;-148.24;100.00;61531.34;4965076;28;20118;-56
2022/11/25 11:02:18;;;;;;;23.08;6.57;;;;;;;-148.24;100.00;61531.34;4965038;28;20811;-54
2022/11/25 11:04:55;;;;;;;21.33;5.72;;;;;;;-148.24;100.00;61531.34;4968300;28;20030;-54
2022/11/25 11:07:21;;;;;;;26.17;6.07;;;;;;;-148.24;100.00;61531.34;4968654;28;20623;-53
2022/11/25 11:09:48;;;;;;;22.63;5.97;;;;;;;-148.24;100.00;61531.34;4968458;28;20058;-55
2022/11/25 11:12:13;;;;;;;23.02;5.90;;;;;;;-148.24;100.00;61531.34;4966772;28;20034;-55
2022/11/25 11:14:39;;;;;;;16.48;5.93;;;;;;;-148.24;100.00;61531.34;4968716;28;20525;-54